Time;durP1;ratioP1;P1;durP2;ratioP2;P2;SDS_P1;SDS_P2;PMS_P1;PMS_P2;Temp;Humidity;BMP_temperature;BMP_pressure;BME280_temperature;BME280_humidity;BME280_pressure;Samples;Min_cycle;Max_cycle;Signal;HPM_P1;HPM_P2
2023/04/23 00:01:47;;;;;;;20.95;3.42;;;10.70;99.90;;;;;;5061154;28;20381;-85
2023/04/23 00:04:16;;;;;;;14.23;2.38;;;10.70;99.90;;;;;;5048289;28;20021;-84
2023/04/23 00:06:42;;;;;;;19.27;2.35;;;10.70;99.90;;;;;;5050408;28;20029;-89
2023/04/23 00:09:11;;;;;;;15.77;2.00;;;10.60;99.90;;;;;;5041963;28;20060;-89
2023/04/23 00:11:37;;;;;;;17.35;2.22;;;10.60;99.90;;;;;;5049302;28;20059;-85
2023/04/23 00:14:02;;;;;;;16.67;2.70;;;10.60;99.90;;;;;;5048362;28;20033;-84
2023/04/23 00:16:28;;;;;;;18.83;2.95;;;10.60;99.90;;;;;;5050689;28;20029;-89
2023/04/23 00:18:54;;;;;;;14.75;1.98;;;10.60;99.90;;;;;;5049838;28;20098;-85
2023/04/23 00:21:20;;;;;;;18.45;2.20;;;10.60;99.90;;;;;;5051363;28;20028;-87
2023/04/23 00:23:45;;;;;;;18.13;3.05;;;10.50;99.90;;;;;;5051633;28;20025;-90
2023/04/23 00:26:11;;;;;;;15.65;2.15;;;10.50;99.90;;;;;;5050965;28;20049;-88
2023/04/23 00:28:36;;;;;;;14.18;1.80;;;10.50;99.90;;;;;;5033111;28;20020;-87
2023/04/23 00:31:02;;;;;;;16.15;2.15;;;10.50;99.90;;;;;;5058703;28;20032;-88
2023/04/23 00:33:28;;;;;;;14.52;2.17;;;10.50;99.90;;;;;;5060003;28;20048;-90
2023/04/23 00:35:53;;;;;;;19.98;2.63;;;10.50;99.90;;;;;;5040125;28;20029;-85
2023/04/23 00:38:20;;;;;;;10.90;1.88;;;10.50;99.90;;;;;;5038829;28;20159;-90
2023/04/23 00:40:45;;;;;;;25.15;2.30;;;10.60;99.90;;;;;;5060274;28;20323;-91
2023/04/23 00:43:12;;;;;;;13.73;2.20;;;10.50;99.90;;;;;;5057075;28;20092;-93
2023/04/23 00:45:38;;;;;;;18.63;2.20;;;10.50;99.90;;;;;;5055986;28;20182;-91
2023/04/23 00:48:05;;;;;;;16.60;2.45;;;10.50;99.90;;;;;;5057559;28;20032;-88
2023/04/23 00:50:31;;;;;;;15.68;2.33;;;10.60;99.90;;;;;;5070164;28;20050;-88
2023/04/23 00:52:57;;;;;;;9.63;1.65;;;10.60;99.90;;;;;;5036635;28;20484;-91
2023/04/23 00:55:23;;;;;;;13.35;1.70;;;10.60;99.90;;;;;;5050722;28;20518;-86
2023/04/23 00:57:49;;;;;;;20.52;2.20;;;10.60;99.90;;;;;;5043838;28;20098;-91
2023/04/23 01:00:16;;;;;;;21.17;2.78;;;10.60;99.90;;;;;;5019134;28;20063;-91
2023/04/23 01:02:43;;;;;;;19.95;2.83;;;10.60;99.90;;;;;;5042438;28;20033;-86
2023/04/23 01:05:10;;;;;;;17.42;1.92;;;10.60;99.90;;;;;;5031802;28;20037;-85
2023/04/23 01:07:36;;;;;;;16.88;1.95;;;10.60;99.90;;;;;;5049907;28;20178;-89
2023/04/23 01:10:04;;;;;;;17.60;2.20;;;10.60;99.90;;;;;;5068749;28;20061;-87
2023/04/23 01:12:30;;;;;;;17.35;2.00;;;10.60;99.90;;;;;;5067092;28;20035;-87
2023/04/23 01:14:56;;;;;;;17.83;2.08;;;10.70;99.90;;;;;;5067697;28;20072;-85
2023/04/23 01:17:22;;;;;;;18.23;2.00;;;10.70;99.90;;;;;;5067798;28;20021;-87
2023/04/23 01:19:47;;;;;;;15.73;1.88;;;10.70;99.90;;;;;;5050651;28;20067;-83
2023/04/23 01:22:14;;;;;;;14.35;2.00;;;10.70;99.90;;;;;;5051901;28;20080;-86
2023/04/23 01:24:41;;;;;;;11.57;1.88;;;10.70;99.90;;;;;;5051707;28;20036;-86
2023/04/23 01:27:08;;;;;;;17.25;1.90;;;10.70;99.90;;;;;;5050537;28;20028;-84
2023/04/23 01:29:34;;;;;;;13.60;2.33;;;10.70;99.90;;;;;;5067538;28;20039;-86
2023/04/23 01:32:00;;;;;;;14.30;1.98;;;10.70;99.90;;;;;;5053445;28;20052;-86
2023/04/23 01:34:26;;;;;;;12.05;1.80;;;10.60;99.90;;;;;;5065674;28;20020;-83
2023/04/23 01:36:53;;;;;;;14.75;1.98;;;10.60;99.90;;;;;;5067768;28;20086;-85
2023/04/23 01:39:19;;;;;;;15.02;1.90;;;10.60;99.90;;;;;;5067329;28;20106;-83
2023/04/23 01:41:46;;;;;;;12.52;2.03;;;10.60;99.90;;;;;;5055150;28;20037;-82
2023/04/23 01:44:11;;;;;;;14.80;1.83;;;10.70;99.90;;;;;;5067556;28;20098;-84
2023/04/23 01:46:37;;;;;;;14.15;2.10;;;10.70;99.90;;;;;;5045438;28;20037;-82
2023/04/23 01:49:03;;;;;;;17.90;2.13;;;10.70;99.90;;;;;;5041191;28;20036;-81
2023/04/23 01:51:29;;;;;;;18.27;1.83;;;10.60;99.90;;;;;;5056934;28;20115;-85
2023/04/23 01:53:55;;;;;;;23.55;2.13;;;10.70;99.90;;;;;;5065732;28;20046;-88
2023/04/23 01:56:25;;;;;;;16.33;1.60;;;10.70;99.90;;;;;;5065826;28;20090;-85
2023/04/23 01:58:51;;;;;;;19.47;2.60;;;10.70;99.90;;;;;;5042460;28;20399;-86
2023/04/23 02:01:17;;;;;;;17.13;1.90;;;10.70;99.90;;;;;;5043552;28;20101;-86
2023/04/23 02:03:44;;;;;;;18.67;2.55;;;10.70;99.90;;;;;;5047593;28;20032;-85
2023/04/23 02:06:10;;;;;;;16.95;1.98;;;10.70;99.90;;;;;;5065720;28;20041;-85
2023/04/23 02:08:36;;;;;;;15.70;2.55;;;10.70;99.90;;;;;;5055963;28;20029;-82
2023/04/23 02:11:02;;;;;;;19.08;2.33;;;10.70;99.90;;;;;;5025206;28;20037;-85
2023/04/23 02:13:28;;;;;;;21.33;2.83;;;10.70;99.90;;;;;;5050723;28;20078;-84
2023/04/23 02:15:53;;;;;;;16.95;1.98;;;10.70;99.90;;;;;;5049891;28;20025;-89
2023/04/23 02:18:19;;;;;;;9.15;1.73;;;10.70;99.90;;;;;;5037502;28;22099;-87
2023/04/23 02:20:44;;;;;;;13.77;2.40;;;10.70;99.90;;;;;;5027905;28;20040;-87
2023/04/23 02:23:11;;;;;;;15.60;2.10;;;10.70;99.90;;;;;;5047922;28;20017;-88
2023/04/23 02:25:39;;;;;;;18.20;2.08;;;10.70;99.90;;;;;;5045511;28;20060;-88
2023/04/23 02:28:06;;;;;;;15.13;2.00;;;10.70;99.90;;;;;;5030979;28;20087;-87
2023/04/23 02:30:35;;;;;;;17.10;2.40;;;10.70;99.90;;;;;;5026934;28;20541;-86
2023/04/23 02:33:01;;;;;;;11.30;1.88;;;10.70;99.90;;;;;;5044420;28;20021;-88
2023/04/23 02:35:27;;;;;;;14.50;2.28;;;10.70;99.90;;;;;;5049190;28;20116;-89
2023/04/23 02:37:53;;;;;;;19.83;2.45;;;10.60;99.90;;;;;;5041319;28;20033;-90
2023/04/23 02:40:19;;;;;;;15.43;2.05;;;10.60;99.90;;;;;;5022069;28;20021;-88
2023/04/23 02:42:45;;;;;;;18.38;2.35;;;10.60;99.90;;;;;;5031583;28;20319;-87
2023/04/23 02:45:10;;;;;;;18.88;2.38;;;10.60;99.90;;;;;;5023024;28;20049;-87
2023/04/23 02:47:37;;;;;;;16.90;2.15;;;10.60;99.90;;;;;;5054646;28;20563;-88
2023/04/23 02:50:05;;;;;;;18.48;2.13;;;10.60;99.90;;;;;;5032607;28;20891;-84
2023/04/23 02:52:31;;;;;;;20.48;2.65;;;10.60;99.90;;;;;;5028357;28;20031;-87
2023/04/23 02:54:57;;;;;;;20.38;2.97;;;10.60;99.90;;;;;;5045812;28;20476;-87
2023/04/23 02:57:23;;;;;;;17.60;3.58;;;10.60;99.90;;;;;;5048681;28;20028;-89
2023/04/23 02:59:49;;;;;;;19.73;2.63;;;10.60;99.90;;;;;;5046888;28;20036;-87
2023/04/23 03:02:14;;;;;;;23.45;3.42;;;10.60;99.90;;;;;;5047491;28;20044;-86
2023/04/23 03:04:40;;;;;;;29.67;4.18;;;10.70;99.90;;;;;;5048627;28;20396;-89
2023/04/23 03:07:06;;;;;;;24.88;4.18;;;10.70;99.90;;;;;;5047813;28;20464;-85
2023/04/23 03:09:32;;;;;;;20.45;2.95;;;10.70;99.90;;;;;;5060638;28;20048;-88
2023/04/23 03:11:57;;;;;;;23.08;3.75;;;10.70;99.90;;;;;;5066031;28;20032;-84
2023/04/23 03:14:23;;;;;;;18.27;3.22;;;10.70;99.90;;;;;;5044363;28;20036;-86
2023/04/23 03:16:48;;;;;;;16.70;3.05;;;10.70;99.90;;;;;;5063829;28;20036;-87
2023/04/23 03:19:14;;;;;;;26.70;3.75;;;10.70;99.90;;;;;;5066219;28;20036;-87
2023/04/23 03:21:40;;;;;;;22.02;3.40;;;10.70;99.90;;;;;;5035536;28;20086;-88
2023/04/23 03:24:06;;;;;;;20.42;3.28;;;10.70;99.90;;;;;;5047189;28;20158;-86
2023/04/23 03:26:31;;;;;;;25.30;5.20;;;10.70;99.90;;;;;;5058906;28;20032;-88
2023/04/23 03:28:57;;;;;;;29.90;4.60;;;10.70;99.90;;;;;;5065130;28;20495;-86
2023/04/23 03:31:22;;;;;;;22.50;4.53;;;10.70;99.90;;;;;;5063451;28;20036;-85
2023/04/23 03:33:48;;;;;;;29.48;4.63;;;10.70;99.90;;;;;;5060184;28;20033;-86
2023/04/23 03:36:14;;;;;;;27.27;4.25;;;10.70;99.90;;;;;;5046205;28;20092;-85
2023/04/23 03:38:40;;;;;;;32.47;4.40;;;10.70;99.90;;;;;;5061434;28;20021;-87
2023/04/23 03:41:05;;;;;;;24.10;3.55;;;10.70;99.90;;;;;;5058447;28;20033;-86
2023/04/23 03:43:31;;;;;;;33.50;4.30;;;10.70;99.90;;;;;;5058045;28;20074;-88
2023/04/23 03:45:57;;;;;;;19.30;3.78;;;10.70;99.90;;;;;;5065132;28;20060;-85
2023/04/23 03:48:22;;;;;;;19.05;4.05;;;10.70;99.90;;;;;;5063158;28;20131;-87
2023/04/23 03:50:48;;;;;;;20.38;3.85;;;10.80;99.90;;;;;;5044718;28;20048;-86
2023/04/23 03:53:14;;;;;;;37.25;4.65;;;10.80;99.90;;;;;;5046517;28;20032;-87
2023/04/23 03:55:39;;;;;;;22.75;3.80;;;10.80;99.90;;;;;;5043471;28;20466;-86
2023/04/23 03:58:05;;;;;;;25.77;3.83;;;10.80;99.90;;;;;;5037253;28;20017;-84
2023/04/23 04:00:31;;;;;;;24.65;3.03;;;10.80;99.90;;;;;;5054420;28;20147;-85
2023/04/23 04:02:56;;;;;;;32.33;4.35;;;10.80;99.90;;;;;;5058852;28;20036;-84
2023/04/23 04:05:22;;;;;;;35.17;3.90;;;10.80;99.90;;;;;;5030403;28;20041;-89
2023/04/23 04:07:48;;;;;;;32.83;4.45;;;10.80;99.90;;;;;;5043367;28;20021;-88
2023/04/23 04:10:14;;;;;;;29.48;3.70;;;10.80;99.90;;;;;;5057159;28;20478;-84
2023/04/23 04:12:40;;;;;;;34.08;4.47;;;10.80;99.90;;;;;;5064499;28;20055;-85
2023/04/23 04:15:07;;;;;;;31.58;4.57;;;10.80;99.90;;;;;;5065293;28;20085;-88
2023/04/23 04:17:32;;;;;;;31.83;4.38;;;10.80;99.90;;;;;;5058956;28;20040;-84
2023/04/23 04:19:58;;;;;;;22.92;3.95;;;10.80;99.90;;;;;;5063350;28;20024;-82
2023/04/23 04:22:23;;;;;;;30.70;4.60;;;10.80;99.90;;;;;;5038755;28;20033;-84
2023/04/23 04:24:50;;;;;;;24.75;4.00;;;10.80;99.90;;;;;;5047818;28;20051;-85
2023/04/23 04:27:16;;;;;;;29.88;4.75;;;10.80;99.90;;;;;;5060755;28;20099;-87
2023/04/23 04:29:42;;;;;;;28.23;3.95;;;10.80;99.90;;;;;;5058455;28;20028;-86
2023/04/23 04:32:09;;;;;;;25.48;3.22;;;10.80;99.90;;;;;;5055398;28;20057;-86
2023/04/23 04:34:38;;;;;;;26.92;3.83;;;10.80;99.90;;;;;;5063114;28;20021;-85
2023/04/23 04:37:04;;;;;;;31.42;3.65;;;10.80;99.90;;;;;;5044016;28;20098;-81
2023/04/23 04:39:29;;;;;;;23.60;3.45;;;10.90;99.90;;;;;;5055901;28;20039;-87
2023/04/23 04:41:56;;;;;;;26.02;3.28;;;10.90;99.90;;;;;;5042467;28;20147;-84
2023/04/23 04:44:22;;;;;;;23.60;3.85;;;10.80;99.90;;;;;;5061288;28;20543;-86
2023/04/23 04:46:47;;;;;;;29.75;4.40;;;10.90;99.90;;;;;;5061773;28;20037;-83
2023/04/23 04:49:13;;;;;;;26.77;4.22;;;10.80;99.90;;;;;;5064472;28;20041;-84
2023/04/23 04:51:40;;;;;;;31.38;4.88;;;10.80;99.90;;;;;;5062573;28;20052;-83
2023/04/23 04:54:06;;;;;;;24.00;3.63;;;10.80;99.90;;;;;;5047785;28;20040;-84
2023/04/23 04:56:33;;;;;;;24.20;3.63;;;10.80;99.90;;;;;;5048015;28;20111;-83
2023/04/23 04:58:59;;;;;;;28.52;3.80;;;10.80;99.90;;;;;;5066842;28;20119;-84
2023/04/23 05:01:27;;;;;;;33.20;4.55;;;10.80;99.90;;;;;;5057343;28;20032;-84
2023/04/23 05:03:53;;;;;;;23.20;4.30;;;10.90;99.90;;;;;;5069178;28;20020;-84
2023/04/23 05:06:19;;;;;;;26.48;3.95;;;10.80;99.90;;;;;;5045740;28;20039;-83
2023/04/23 05:08:46;;;;;;;20.55;2.95;;;10.80;99.90;;;;;;5067096;28;20060;-82
2023/04/23 05:11:14;;;;;;;15.73;2.80;;;10.80;99.90;;;;;;5064744;28;20048;-84
2023/04/23 05:13:40;;;;;;;22.58;3.05;;;10.70;99.90;;;;;;5045302;28;20040;-82
2023/04/23 05:16:05;;;;;;;14.15;3.65;;;10.70;99.90;;;;;;5059580;28;20039;-84
2023/04/23 05:18:31;;;;;;;14.07;2.30;;;10.80;99.90;;;;;;5064905;28;20032;-83
2023/04/23 05:20:57;;;;;;;18.83;2.22;;;10.70;99.90;;;;;;5045628;28;20037;-86
2023/04/23 05:23:22;;;;;;;12.10;2.05;;;10.60;99.90;;;;;;5062598;28;20021;-84
2023/04/23 05:25:50;;;;;;;13.00;2.30;;;10.60;99.90;;;;;;5064524;28;20126;-84
2023/04/23 05:28:16;;;;;;;18.50;2.95;;;10.60;99.90;;;;;;5063267;28;20033;-83
2023/04/23 05:30:42;;;;;;;10.25;2.20;;;10.60;99.90;;;;;;5047174;28;20032;-84
2023/04/23 05:33:08;;;;;;;16.33;2.60;;;10.60;99.90;;;;;;5044923;28;20471;-83
2023/04/23 05:35:33;;;;;;;11.05;2.67;;;10.60;99.90;;;;;;5063185;28;20032;-84
2023/04/23 05:38:00;;;;;;;13.75;2.45;;;10.60;99.90;;;;;;5044079;28;20120;-84
2023/04/23 05:40:26;;;;;;;16.85;2.67;;;10.70;99.90;;;;;;5036558;28;20468;-85
2023/04/23 05:42:51;;;;;;;15.00;2.65;;;10.70;99.90;;;;;;5051060;28;20044;-84
2023/04/23 05:45:17;;;;;;;16.23;2.40;;;10.80;99.90;;;;;;5046556;28;20140;-84
2023/04/23 05:47:43;;;;;;;14.77;2.60;;;10.80;99.90;;;;;;5052811;28;20716;-84
2023/04/23 05:50:10;;;;;;;16.10;2.60;;;11.00;99.90;;;;;;5063250;28;20560;-85
2023/04/23 05:52:36;;;;;;;24.80;3.10;;;11.00;99.90;;;;;;5058403;28;20795;-83
2023/04/23 05:55:02;;;;;;;20.58;3.17;;;11.10;99.90;;;;;;5069041;28;20028;-84
2023/04/23 05:57:27;;;;;;;24.08;3.42;;;11.10;99.90;;;;;;5048032;28;20103;-82
2023/04/23 05:59:53;;;;;;;16.88;2.67;;;11.10;99.90;;;;;;5060721;28;20035;-83
2023/04/23 06:02:18;;;;;;;17.65;3.33;;;11.10;99.90;;;;;;5044852;28;20037;-85
2023/04/23 06:04:44;;;;;;;21.35;3.35;;;11.00;99.90;;;;;;5044456;28;20025;-85
2023/04/23 06:07:11;;;;;;;20.38;3.10;;;11.00;99.90;;;;;;5062079;28;20119;-84
2023/04/23 06:09:36;;;;;;;18.13;2.67;;;11.00;99.90;;;;;;5048963;28;20048;-84
2023/04/23 06:12:02;;;;;;;22.05;3.33;;;11.10;99.90;;;;;;5048223;28;20064;-83
2023/04/23 06:14:28;;;;;;;19.75;3.72;;;11.00;99.90;;;;;;5044804;28;20047;-85
2023/04/23 06:16:54;;;;;;;16.90;3.00;;;11.00;99.90;;;;;;5025419;28;20129;-84
2023/04/23 06:19:19;;;;;;;15.13;2.55;;;10.90;99.90;;;;;;5044815;28;20025;-83
2023/04/23 06:21:45;;;;;;;11.70;2.47;;;11.00;99.90;;;;;;5043001;28;20068;-84
2023/04/23 06:24:11;;;;;;;10.10;2.05;;;11.00;99.90;;;;;;5042871;28;20025;-85
2023/04/23 06:26:36;;;;;;;8.00;2.00;;;11.00;99.90;;;;;;5037112;28;20083;-85
2023/04/23 06:29:02;;;;;;;7.03;1.52;;;11.00;99.90;;;;;;5039840;28;20075;-83
2023/04/23 06:31:28;;;;;;;7.20;2.15;;;11.00;99.90;;;;;;5040127;28;20024;-83
2023/04/23 06:33:53;;;;;;;8.65;2.05;;;11.00;99.90;;;;;;5034578;28;20048;-83
2023/04/23 06:36:19;;;;;;;15.65;2.60;;;11.00;99.90;;;;;;5042065;28;20056;-83
2023/04/23 06:38:44;;;;;;;11.18;2.60;;;11.00;99.90;;;;;;5042317;28;20048;-84
2023/04/23 06:41:11;;;;;;;26.63;5.03;;;11.10;99.90;;;;;;5023403;28;20025;-86
2023/04/23 06:43:37;;;;;;;24.33;5.03;;;11.10;99.90;;;;;;5041843;28;20039;-83
2023/04/23 06:46:03;;;;;;;27.60;5.63;;;11.20;99.90;;;;;;5042807;28;20041;-83
2023/04/23 06:48:28;;;;;;;23.77;4.28;;;11.10;99.90;;;;;;5039714;28;20060;-83
2023/04/23 06:50:54;;;;;;;24.98;4.25;;;11.20;99.90;;;;;;5041277;28;20032;-83
2023/04/23 06:53:20;;;;;;;28.05;3.83;;;11.30;99.90;;;;;;5042467;28;20063;-82
2023/04/23 06:55:48;;;;;;;13.32;3.03;;;11.30;99.90;;;;;;5043051;28;20766;-83
2023/04/23 06:58:14;;;;;;;15.75;3.10;;;11.30;99.90;;;;;;5040461;28;20040;-83
2023/04/23 07:00:40;;;;;;;20.00;3.22;;;11.40;99.90;;;;;;5036682;28;20805;-84
2023/04/23 07:03:06;;;;;;;17.33;3.58;;;11.50;99.90;;;;;;5031307;28;20021;-82
2023/04/23 07:05:32;;;;;;;25.13;5.55;;;11.40;99.90;;;;;;5031441;28;20037;-81
2023/04/23 07:07:57;;;;;;;22.05;4.38;;;11.30;99.90;;;;;;5014215;28;20044;-83
2023/04/23 07:10:24;;;;;;;21.75;4.70;;;11.30;99.90;;;;;;5052912;28;20036;-85
2023/04/23 07:12:49;;;;;;;19.08;4.18;;;11.30;99.90;;;;;;5040038;28;20043;-86
2023/04/23 07:15:15;;;;;;;20.70;4.18;;;11.20;99.90;;;;;;5060950;28;20032;-83
2023/04/23 07:17:40;;;;;;;27.70;4.80;;;11.20;99.90;;;;;;5061468;28;20029;-84
2023/04/23 07:20:07;;;;;;;30.50;4.90;;;11.30;99.90;;;;;;5062493;28;20116;-85
2023/04/23 07:22:33;;;;;;;22.58;3.65;;;11.30;99.90;;;;;;5052502;28;20107;-86
2023/04/23 07:25:03;;;;;;;17.75;3.50;;;11.40;99.90;;;;;;5058742;28;20088;-82
2023/04/23 07:27:29;;;;;;;26.30;3.72;;;11.50;99.90;;;;;;5063975;28;20388;-88
2023/04/23 07:29:54;;;;;;;22.63;4.13;;;11.50;99.90;;;;;;5064910;28;20023;-84
2023/04/23 07:32:22;;;;;;;17.10;3.22;;;11.50;99.90;;;;;;5064320;28;20084;-87
2023/04/23 07:34:48;;;;;;;14.35;3.25;;;11.50;99.90;;;;;;5064030;28;20042;-84
2023/04/23 07:37:13;;;;;;;19.90;3.60;;;11.40;99.90;;;;;;5065515;28;20429;-84
2023/04/23 07:39:39;;;;;;;11.48;2.53;;;11.40;99.90;;;;;;5055845;28;20486;-84
2023/04/23 07:42:04;;;;;;;12.68;2.47;;;11.50;99.90;;;;;;5056630;28;20040;-84
2023/04/23 07:44:30;;;;;;;5.90;1.90;;;11.40;99.90;;;;;;5062311;28;20071;-83
2023/04/23 07:46:56;;;;;;;12.40;2.30;;;11.40;99.90;;;;;;5060749;28;20036;-88
2023/04/23 07:49:21;;;;;;;9.93;1.98;;;11.40;99.90;;;;;;5065924;28;20028;-86
2023/04/23 07:51:47;;;;;;;10.35;3.58;;;11.30;99.90;;;;;;5063819;28;20500;-85
2023/04/23 07:54:13;;;;;;;10.13;2.10;;;11.20;99.90;;;;;;5056616;28;20055;-83
2023/04/23 07:56:39;;;;;;;8.30;1.80;;;11.20;99.90;;;;;;5052341;28;20028;-86
2023/04/23 07:59:05;;;;;;;5.60;1.50;;;11.10;99.90;;;;;;5054249;28;20032;-87
2023/04/23 08:01:32;;;;;;;7.85;1.83;;;11.10;99.90;;;;;;5049136;28;20020;-86
2023/04/23 08:03:59;;;;;;;9.35;1.80;;;11.00;99.90;;;;;;5052862;28;20032;-85
2023/04/23 08:06:25;;;;;;;7.40;1.92;;;11.00;99.90;;;;;;5051997;28;20055;-87
2023/04/23 08:08:51;;;;;;;5.82;1.67;;;10.90;99.90;;;;;;5048474;28;20744;-87
2023/04/23 08:11:17;;;;;;;8.98;1.77;;;10.90;99.90;;;;;;5020120;28;20087;-87
2023/04/23 08:13:43;;;;;;;10.75;1.70;;;11.00;99.90;;;;;;5020139;28;20045;-86
2023/04/23 08:16:08;;;;;;;3.75;1.23;;;11.10;99.90;;;;;;5025711;28;20119;-87
2023/04/23 08:18:34;;;;;;;7.00;1.50;;;11.10;99.90;;;;;;5036626;28;20029;-86
2023/04/23 08:21:00;;;;;;;5.93;1.90;;;11.20;99.90;;;;;;5026615;28;20033;-87
2023/04/23 08:23:27;;;;;;;13.30;3.83;;;11.30;99.90;;;;;;5042215;28;20105;-89
2023/04/23 08:25:52;;;;;;;6.75;2.33;;;11.30;99.90;;;;;;5038459;28;20033;-88
2023/04/23 08:28:18;;;;;;;3.17;1.30;;;11.10;99.90;;;;;;5043417;28;20043;-86
2023/04/23 08:30:44;;;;;;;5.85;1.58;;;11.20;99.90;;;;;;5034519;28;20100;-89
2023/04/23 08:33:10;;;;;;;4.57;1.30;;;11.20;99.90;;;;;;5031607;28;20028;-89
2023/04/23 08:35:36;;;;;;;5.50;1.70;;;11.30;99.90;;;;;;5047911;28;20029;-91
2023/04/23 08:38:02;;;;;;;5.07;1.75;;;11.30;99.90;;;;;;5052827;28;20069;-86
2023/04/23 08:40:30;;;;;;;4.22;1.15;;;11.30;99.90;;;;;;5027606;28;20029;-92
2023/04/23 08:42:56;;;;;;;3.05;1.20;;;11.30;99.90;;;;;;5039544;28;20021;-90
2023/04/23 08:45:21;;;;;;;3.72;0.90;;;11.50;99.90;;;;;;5032252;28;20468;-91
2023/04/23 08:47:47;;;;;;;5.05;0.85;;;11.60;99.90;;;;;;5037451;28;20159;-90
2023/04/23 08:50:18;;;;;;;1.63;0.90;;;11.70;99.90;;;;;;5033768;28;20118;-88
2023/04/23 08:52:52;;;;;;;2.80;1.17;;;11.80;99.90;;;;;;5022822;28;20208;-90
2023/04/23 08:55:20;;;;;;;1.85;0.60;;;11.80;99.90;;;;;;5031956;28;20037;-90
2023/04/23 08:57:46;;;;;;;1.33;0.60;;;11.90;99.90;;;;;;5037434;28;20029;-90
2023/04/23 09:00:14;;;;;;;2.45;0.50;;;11.90;99.90;;;;;;5038005;28;20509;-91
2023/04/23 09:02:43;;;;;;;0.98;0.50;;;12.30;99.90;;;;;;5042531;28;20021;-91
2023/04/23 09:05:09;;;;;;;1.17;0.60;;;12.50;99.90;;;;;;5036007;28;20090;-85
2023/04/23 09:07:35;;;;;;;1.25;0.40;;;12.50;99.90;;;;;;5022152;28;20029;-89
2023/04/23 09:10:06;;;;;;;0.70;0.30;;;12.50;99.90;;;;;;5054455;28;20048;-88
2023/04/23 09:12:34;;;;;;;1.33;0.55;;;12.60;99.90;;;;;;5061525;28;20036;-89
2023/04/23 09:15:01;;;;;;;1.73;0.60;;;12.80;99.90;;;;;;5064850;28;20424;-89
2023/04/23 09:20:02;;;;;;;1.05;0.30;;;12.70;99.90;;;;;;5361267;22;20091;-76
2023/04/23 09:22:48;;;;;;;1.33;0.50;;;12.40;99.90;;;;;;5047696;22;20072;-75
2023/04/23 09:25:16;;;;;;;1.48;0.40;;;12.40;99.90;;;;;;5029323;28;20267;-74
2023/04/23 09:27:42;;;;;;;1.90;0.40;;;12.40;99.90;;;;;;5052164;28;20076;-74
2023/04/23 09:30:10;;;;;;;1.83;0.50;;;12.80;99.90;;;;;;5058753;28;20035;-74
2023/04/23 09:32:37;;;;;;;1.05;0.47;;;13.10;99.90;;;;;;5055151;28;20036;-74
2023/04/23 09:35:04;;;;;;;1.75;0.60;;;13.20;99.90;;;;;;5058228;28;20873;-74
2023/04/23 09:37:31;;;;;;;2.05;0.50;;;13.20;99.90;;;;;;5061932;28;20113;-74
2023/04/23 09:40:03;;;;;;;1.13;0.52;;;13.20;99.90;;;;;;5043076;28;20108;-74
2023/04/23 09:42:29;;;;;;;1.52;0.40;;;13.20;99.90;;;;;;5057504;28;20051;-74
2023/04/23 09:44:56;;;;;;;0.95;0.60;;;13.10;99.90;;;;;;5041514;28;20591;-74
2023/04/23 09:47:22;;;;;;;3.10;0.50;;;12.90;99.90;;;;;;5053557;28;20040;-74
2023/04/23 09:49:48;;;;;;;1.92;0.40;;;13.00;99.90;;;;;;5053242;28;20025;-75
2023/04/23 09:52:14;;;;;;;2.65;0.52;;;13.20;99.90;;;;;;5061940;28;20131;-75
2023/04/23 09:54:41;;;;;;;3.47;0.80;;;13.60;99.90;;;;;;5042551;28;20439;-75
2023/04/23 09:57:07;;;;;;;1.00;0.40;;;13.90;99.90;;;;;;5052830;28;20520;-74
2023/04/23 09:59:37;;;;;;;2.65;0.40;;;14.30;99.90;;;;;;5052096;28;20024;-74
2023/04/23 10:02:06;;;;;;;2.25;0.70;;;14.40;99.90;;;;;;5053507;28;20032;-74
2023/04/23 10:04:33;;;;;;;3.10;0.80;;;14.50;99.90;;;;;;5056436;28;21854;-75
2023/04/23 10:07:02;;;;;;;3.75;0.70;;;14.60;99.90;;;;;;5039504;28;20048;-74
2023/04/23 10:09:28;;;;;;;4.63;1.00;;;14.50;99.90;;;;;;5042223;28;20039;-74
2023/04/23 10:11:56;;;;;;;2.90;0.50;;;14.60;99.90;;;;;;5039678;28;20028;-75
2023/04/23 10:14:22;;;;;;;3.42;0.60;;;14.60;99.90;;;;;;5053950;28;20109;-74
2023/04/23 10:16:51;;;;;;;5.60;1.20;;;14.70;99.90;;;;;;5053547;28;20767;-74
2023/04/23 10:19:21;;;;;;;3.60;0.50;;;14.60;99.90;;;;;;5052869;28;20037;-75
2023/04/23 10:21:52;;;;;;;4.15;0.65;;;14.60;99.90;;;;;;5055754;28;20023;-74
2023/04/23 10:24:20;;;;;;;5.47;0.50;;;14.80;99.90;;;;;;5056658;28;20049;-74
2023/04/23 10:26:47;;;;;;;4.38;0.68;;;15.00;99.90;;;;;;5043610;28;20054;-74
2023/04/23 10:29:17;;;;;;;4.63;0.60;;;15.10;99.90;;;;;;5057460;28;20032;-75
2023/04/23 10:31:45;;;;;;;3.00;0.40;;;15.20;99.90;;;;;;5056024;28;20039;-74
2023/04/23 10:34:11;;;;;;;1.52;0.50;;;15.50;99.90;;;;;;5053652;28;20161;-74
2023/04/23 10:36:37;;;;;;;3.05;0.40;;;15.70;99.90;;;;;;5036939;28;20125;-75
2023/04/23 10:39:06;;;;;;;5.32;0.40;;;15.80;99.90;;;;;;5017963;28;20032;-74
2023/04/23 10:41:38;;;;;;;1.95;0.40;;;15.70;99.90;;;;;;5053533;28;20341;-75
2023/04/23 10:44:11;;;;;;;7.78;0.60;;;16.00;99.90;;;;;;5066241;28;20263;-75
2023/04/23 10:46:37;;;;;;;2.33;0.47;;;16.10;99.90;;;;;;5059363;28;20169;-75
2023/04/23 10:49:14;;;;;;;5.75;0.45;;;15.80;99.90;;;;;;5076135;28;20378;-74
2023/04/23 10:51:43;;;;;;;3.25;0.50;;;15.90;99.90;;;;;;5045087;28;20411;-76
2023/04/23 10:54:12;;;;;;;3.17;0.52;;;15.70;99.90;;;;;;5064214;28;20028;-74
2023/04/23 10:56:39;;;;;;;3.03;0.43;;;15.70;99.90;;;;;;5054551;28;20471;-75
2023/04/23 10:59:26;;;;;;;5.28;0.55;;;15.50;99.90;;;;;;5051506;28;20024;-76
2023/04/23 11:01:54;;;;;;;1.58;0.43;;;15.50;99.90;;;;;;5060711;28;20024;-75
2023/04/23 11:04:27;;;;;;;4.20;0.60;;;15.30;99.90;;;;;;5067272;28;20063;-74
2023/04/23 11:07:13;;;;;;;2.15;0.40;;;15.50;99.90;;;;;;5055755;28;20036;-75
2023/04/23 11:09:46;;;;;;;2.00;0.35;;;15.60;99.90;;;;;;5058660;28;20534;-75
2023/04/23 11:12:33;;;;;;;3.45;0.40;;;15.70;99.90;;;;;;5045548;28;20036;-75
2023/04/23 11:15:12;;;;;;;2.25;0.55;;;15.60;99.90;;;;;;5026872;28;20041;-75
2023/04/23 11:17:38;;;;;;;1.48;0.40;;;15.70;99.90;;;;;;5029740;28;20441;-75
2023/04/23 11:20:09;;;;;;;1.27;0.35;;;15.80;99.90;;;;;;5044432;28;20035;-75
2023/04/23 11:22:42;;;;;;;2.80;0.30;;;15.90;99.90;;;;;;5047227;28;20395;-75
2023/04/23 11:25:12;;;;;;;1.95;0.40;;;15.80;99.90;;;;;;5058925;28;20136;-75
2023/04/23 11:27:39;;;;;;;2.67;0.35;;;15.90;99.90;;;;;;5047986;28;20029;-75
2023/04/23 11:30:11;;;;;;;1.77;0.40;;;16.00;99.90;;;;;;5052420;28;20107;-75
2023/04/23 11:32:37;;;;;;;1.30;0.30;;;16.20;99.90;;;;;;5058058;28;20293;-75
2023/04/23 11:35:04;;;;;;;1.25;0.35;;;16.30;99.90;;;;;;5055631;28;20040;-75
2023/04/23 11:37:29;;;;;;;3.45;0.60;;;16.40;98.90;;;;;;5055353;28;20024;-75
2023/04/23 11:39:55;;;;;;;3.22;0.50;;;16.50;97.10;;;;;;5059131;28;20097;-79
2023/04/23 11:42:21;;;;;;;2.10;0.40;;;16.60;97.20;;;;;;5047211;28;20373;-75
2023/04/23 11:44:47;;;;;;;4.40;0.40;;;16.70;97.70;;;;;;5064658;28;20079;-75
2023/04/23 11:47:17;;;;;;;3.47;0.47;;;16.90;98.70;;;;;;5059298;28;20447;-75
2023/04/23 11:49:43;;;;;;;2.40;0.40;;;17.10;98.00;;;;;;5060092;28;20020;-75
2023/04/23 11:52:10;;;;;;;2.75;0.40;;;17.20;99.00;;;;;;5075184;28;20043;-75
2023/04/23 11:54:39;;;;;;;1.27;0.40;;;17.30;98.40;;;;;;5062352;28;20047;-75
2023/04/23 11:57:05;;;;;;;2.17;0.20;;;17.30;97.00;;;;;;5080694;28;20394;-75
2023/04/23 11:59:31;;;;;;;2.15;0.30;;;17.40;94.00;;;;;;5050535;28;20025;-75
2023/04/23 12:01:58;;;;;;;3.00;0.30;;;17.30;92.70;;;;;;5060784;28;20451;-75
2023/04/23 12:04:26;;;;;;;1.63;0.30;;;17.30;94.80;;;;;;5045794;28;20040;-74
2023/04/23 12:06:54;;;;;;;1.50;0.35;;;17.40;96.00;;;;;;5045928;28;20041;-74
2023/04/23 12:09:22;;;;;;;1.63;0.30;;;17.30;95.40;;;;;;5046976;28;20040;-74
2023/04/23 12:11:49;;;;;;;2.33;0.40;;;17.50;93.80;;;;;;5045249;28;20038;-74
2023/04/23 12:14:17;;;;;;;1.58;0.50;;;17.60;89.80;;;;;;5050473;28;20048;-74
2023/04/23 12:16:44;;;;;;;1.52;0.30;;;17.60;90.60;;;;;;5057161;28;20070;-74
2023/04/23 12:19:24;;;;;;;1.90;0.30;;;17.90;94.40;;;;;;5045949;28;20383;-74
2023/04/23 12:21:53;;;;;;;1.25;0.30;;;17.80;88.00;;;;;;5063225;28;20024;-75
2023/04/23 12:24:20;;;;;;;2.50;0.30;;;17.90;90.50;;;;;;5045065;28;20040;-74
2023/04/23 12:26:49;;;;;;;1.98;0.22;;;18.10;90.60;;;;;;5066021;28;20040;-74
2023/04/23 12:29:17;;;;;;;1.33;0.30;;;18.20;91.00;;;;;;5058399;28;20112;-75
2023/04/23 12:31:43;;;;;;;2.35;0.30;;;18.30;90.10;;;;;;5044555;28;20111;-75
2023/04/23 12:34:09;;;;;;;1.90;0.32;;;18.80;89.90;;;;;;5055759;28;20024;-75
2023/04/23 12:36:37;;;;;;;1.13;0.30;;;19.10;90.50;;;;;;5063561;28;20056;-74
2023/04/23 12:39:28;;;;;;;1.55;0.32;;;19.20;86.50;;;;;;5046164;28;20035;-75
2023/04/23 12:42:03;;;;;;;3.00;0.45;;;19.00;81.90;;;;;;5064832;28;20016;-75